sensor_id;sensor_type;location;lat;lon;timestamp;temperature;humidity
10433;DHT22;5263;48.680;9.004;2023-06-26T00:00:52;17.30;99.90
10433;DHT22;5263;48.680;9.004;2023-06-26T00:03:18;17.30;99.90
10433;DHT22;5263;48.680;9.004;2023-06-26T00:05:43;17.20;99.90
10433;DHT22;5263;48.680;9.004;2023-06-26T00:08:09;17.30;99.90
10433;DHT22;5263;48.680;9.004;2023-06-26T00:10:35;17.20;99.90
10433;DHT22;5263;48.680;9.004;2023-06-26T00:13:00;17.10;99.90
10433;DHT22;5263;48.680;9.004;2023-06-26T00:15:27;17.10;99.90
10433;DHT22;5263;48.680;9.004;2023-06-26T00:17:57;17.10;99.90
10433;DHT22;5263;48.680;9.004;2023-06-26T00:20:22;17.00;99.90
10433;DHT22;5263;48.680;9.004;2023-06-26T00:22:49;16.90;99.90
10433;DHT22;5263;48.680;9.004;2023-06-26T00:25:15;16.80;99.90
10433;DHT22;5263;48.680;9.004;2023-06-26T00:27:41;16.90;99.90
10433;DHT22;5263;48.680;9.004;2023-06-26T00:30:08;16.90;99.90
10433;DHT22;5263;48.680;9.004;2023-06-26T00:32:34;16.90;99.90
10433;DHT22;5263;48.680;9.004;2023-06-26T00:34:59;16.90;99.90
10433;DHT22;5263;48.680;9.004;2023-06-26T00:37:25;16.90;99.90
10433;DHT22;5263;48.680;9.004;2023-06-26T00:39:50;16.90;99.90
10433;DHT22;5263;48.680;9.004;2023-06-26T00:42:16;16.80;99.90
10433;DHT22;5263;48.680;9.004;2023-06-26T00:44:42;16.80;99.90
10433;DHT22;5263;48.680;9.004;2023-06-26T00:47:14;16.70;99.90
10433;DHT22;5263;48.680;9.004;2023-06-26T00:49:40;16.70;99.90
10433;DHT22;5263;48.680;9.004;2023-06-26T00:52:06;16.60;99.90
10433;DHT22;5263;48.680;9.004;2023-06-26T00:54:32;16.70;99.90
10433;DHT22;5263;48.680;9.004;2023-06-26T00:56:57;16.60;99.90
10433;DHT22;5263;48.680;9.004;2023-06-26T00:59:23;16.60;99.90
10433;DHT22;5263;48.680;9.004;2023-06-26T01:01:49;16.50;99.90
10433;DHT22;5263;48.680;9.004;2023-06-26T01:04:15;16.50;99.90
10433;DHT22;5263;48.680;9.004;2023-06-26T01:06:47;16.60;99.90
10433;DHT22;5263;48.680;9.004;2023-06-26T01:09:21;16.50;99.90
10433;DHT22;5263;48.680;9.004;2023-06-26T01:11:47;16.50;99.90
10433;DHT22;5263;48.680;9.004;2023-06-26T01:14:12;16.40;99.90
10433;DHT22;5263;48.680;9.004;2023-06-26T01:16:39;16.50;99.90
10433;DHT22;5263;48.680;9.004;2023-06-26T01:19:19;16.60;99.90
10433;DHT22;5263;48.680;9.004;2023-06-26T01:21:54;16.50;99.90
10433;DHT22;5263;48.680;9.004;2023-06-26T01:24:22;16.40;99.90
10433;DHT22;5263;48.680;9.004;2023-06-26T01:26:53;16.40;99.90
10433;DHT22;5263;48.680;9.004;2023-06-26T01:29:19;16.20;99.90
10433;DHT22;5263;48.680;9.004;2023-06-26T01:31:47;16.20;99.90
10433;DHT22;5263;48.680;9.004;2023-06-26T01:34:16;16.30;99.90
10433;DHT22;5263;48.680;9.004;2023-06-26T01:36:42;16.30;99.90
10433;DHT22;5263;48.680;9.004;2023-06-26T01:39:09;16.40;99.90
10433;DHT22;5263;48.680;9.004;2023-06-26T01:41:34;16.30;99.90
10433;DHT22;5263;48.680;9.004;2023-06-26T01:47:00;16.20;99.90
10433;DHT22;5263;48.680;9.004;2023-06-26T01:52:49;16.10;99.90
10433;DHT22;5263;48.680;9.004;2023-06-26T01:57:56;16.10;99.90
10433;DHT22;5263;48.680;9.004;2023-06-26T02:00:22;16.00;99.90
10433;DHT22;5263;48.680;9.004;2023-06-26T02:02:48;15.90;99.90
10433;DHT22;5263;48.680;9.004;2023-06-26T02:05:14;15.90;99.90
10433;DHT22;5263;48.680;9.004;2023-06-26T02:07:40;16.00;99.90
10433;DHT22;5263;48.680;9.004;2023-06-26T02:10:06;16.00;99.90
10433;DHT22;5263;48.680;9.004;2023-06-26T02:12:32;15.90;99.90
10433;DHT22;5263;48.680;9.004;2023-06-26T02:14:57;15.90;99.90
10433;DHT22;5263;48.680;9.004;2023-06-26T02:17:23;16.00;99.90
10433;DHT22;5263;48.680;9.004;2023-06-26T02:19:48;15.90;99.90
10433;DHT22;5263;48.680;9.004;2023-06-26T02:22:15;15.90;99.90
10433;DHT22;5263;48.680;9.004;2023-06-26T02:24:41;15.90;99.90
10433;DHT22;5263;48.680;9.004;2023-06-26T02:27:07;15.80;99.90
10433;DHT22;5263;48.680;9.004;2023-06-26T02:29:32;15.80;99.90
10433;DHT22;5263;48.680;9.004;2023-06-26T02:31:58;15.70;99.90
10433;DHT22;5263;48.680;9.004;2023-06-26T02:34:24;15.60;99.90
10433;DHT22;5263;48.680;9.004;2023-06-26T02:36:49;15.50;99.90
10433;DHT22;5263;48.680;9.004;2023-06-26T02:39:15;15.50;99.90
10433;DHT22;5263;48.680;9.004;2023-06-26T02:41:40;15.40;99.90
10433;DHT22;5263;48.680;9.004;2023-06-26T02:44:06;15.40;99.90
10433;DHT22;5263;48.680;9.004;2023-06-26T02:46:32;15.40;99.90
10433;DHT22;5263;48.680;9.004;2023-06-26T02:48:59;15.30;99.90
10433;DHT22;5263;48.680;9.004;2023-06-26T02:51:24;15.40;99.90
10433;DHT22;5263;48.680;9.004;2023-06-26T02:53:50;15.30;99.90
10433;DHT22;5263;48.680;9.004;2023-06-26T02:56:15;15.30;99.90
10433;DHT22;5263;48.680;9.004;2023-06-26T02:58:41;15.20;99.90
10433;DHT22;5263;48.680;9.004;2023-06-26T03:01:07;15.30;99.90
10433;DHT22;5263;48.680;9.004;2023-06-26T03:03:33;15.20;99.90
10433;DHT22;5263;48.680;9.004;2023-06-26T03:06:08;15.20;99.90
10433;DHT22;5263;48.680;9.004;2023-06-26T03:08:37;15.20;99.90
10433;DHT22;5263;48.680;9.004;2023-06-26T03:11:04;15.30;99.90
10433;DHT22;5263;48.680;9.004;2023-06-26T03:13:30;15.40;99.90
10433;DHT22;5263;48.680;9.004;2023-06-26T03:15:55;15.50;99.90
10433;DHT22;5263;48.680;9.004;2023-06-26T03:18:21;15.60;99.90
10433;DHT22;5263;48.680;9.004;2023-06-26T03:20:47;15.70;99.90
10433;DHT22;5263;48.680;9.004;2023-06-26T03:23:13;15.90;99.90
10433;DHT22;5263;48.680;9.004;2023-06-26T03:25:39;15.90;99.90
10433;DHT22;5263;48.680;9.004;2023-06-26T03:28:04;15.90;99.90
10433;DHT22;5263;48.680;9.004;2023-06-26T03:30:30;16.10;99.90
10433;DHT22;5263;48.680;9.004;2023-06-26T03:32:55;16.10;99.90
10433;DHT22;5263;48.680;9.004;2023-06-26T03:35:21;16.10;99.90
10433;DHT22;5263;48.680;9.004;2023-06-26T03:37:48;16.40;99.90
10433;DHT22;5263;48.680;9.004;2023-06-26T03:40:14;16.30;99.90
10433;DHT22;5263;48.680;9.004;2023-06-26T03:42:40;16.40;99.90
10433;DHT22;5263;48.680;9.004;2023-06-26T03:45:06;16.50;99.90
10433;DHT22;5263;48.680;9.004;2023-06-26T03:47:32;16.40;99.90
10433;DHT22;5263;48.680;9.004;2023-06-26T03:49:58;16.50;99.90
10433;DHT22;5263;48.680;9.004;2023-06-26T03:52:24;16.30;99.90
10433;DHT22;5263;48.680;9.004;2023-06-26T03:54:49;16.20;99.90
10433;DHT22;5263;48.680;9.004;2023-06-26T03:57:15;16.20;99.90
10433;DHT22;5263;48.680;9.004;2023-06-26T03:59:40;16.20;99.90
10433;DHT22;5263;48.680;9.004;2023-06-26T04:02:06;16.10;99.90
10433;DHT22;5263;48.680;9.004;2023-06-26T04:04:31;16.30;99.90
10433;DHT22;5263;48.680;9.004;2023-06-26T04:06:57;16.40;99.90
10433;DHT22;5263;48.680;9.004;2023-06-26T04:09:25;16.40;99.90
10433;DHT22;5263;48.680;9.004;2023-06-26T04:11:50;16.40;99.90
10433;DHT22;5263;48.680;9.004;2023-06-26T04:14:16;16.50;99.90
10433;DHT22;5263;48.680;9.004;2023-06-26T04:16:42;16.50;99.90
10433;DHT22;5263;48.680;9.004;2023-06-26T04:19:07;16.50;99.90
10433;DHT22;5263;48.680;9.004;2023-06-26T04:21:35;16.60;99.90
10433;DHT22;5263;48.680;9.004;2023-06-26T04:24:01;16.60;99.90
10433;DHT22;5263;48.680;9.004;2023-06-26T04:26:26;16.60;99.90
10433;DHT22;5263;48.680;9.004;2023-06-26T04:28:53;16.80;99.90
10433;DHT22;5263;48.680;9.004;2023-06-26T04:31:19;16.80;99.90
10433;DHT22;5263;48.680;9.004;2023-06-26T04:33:48;17.20;99.90
10433;DHT22;5263;48.680;9.004;2023-06-26T04:36:20;17.30;99.90
10433;DHT22;5263;48.680;9.004;2023-06-26T04:38:46;17.60;99.90
10433;DHT22;5263;48.680;9.004;2023-06-26T04:41:13;17.70;99.90
10433;DHT22;5263;48.680;9.004;2023-06-26T04:43:39;17.80;99.90
10433;DHT22;5263;48.680;9.004;2023-06-26T04:46:05;17.90;99.90
10433;DHT22;5263;48.680;9.004;2023-06-26T04:48:32;17.80;99.90
10433;DHT22;5263;48.680;9.004;2023-06-26T04:50:57;17.80;99.90
10433;DHT22;5263;48.680;9.004;2023-06-26T04:53:24;17.90;99.90
10433;DHT22;5263;48.680;9.004;2023-06-26T04:55:51;18.00;99.90
10433;DHT22;5263;48.680;9.004;2023-06-26T04:58:19;18.10;99.90
10433;DHT22;5263;48.680;9.004;2023-06-26T05:00:45;18.10;99.90
10433;DHT22;5263;48.680;9.004;2023-06-26T05:03:12;18.30;99.90
10433;DHT22;5263;48.680;9.004;2023-06-26T05:05:38;18.50;99.90
10433;DHT22;5263;48.680;9.004;2023-06-26T05:08:22;18.50;99.90
10433;DHT22;5263;48.680;9.004;2023-06-26T05:10:48;18.80;99.90
10433;DHT22;5263;48.680;9.004;2023-06-26T05:13:13;18.90;99.90
10433;DHT22;5263;48.680;9.004;2023-06-26T05:15:45;18.90;99.90
10433;DHT22;5263;48.680;9.004;2023-06-26T05:18:11;19.00;99.90
10433;DHT22;5263;48.680;9.004;2023-06-26T05:20:37;19.20;99.90
10433;DHT22;5263;48.680;9.004;2023-06-26T05:23:03;19.40;99.90
10433;DHT22;5263;48.680;9.004;2023-06-26T05:25:30;19.50;99.90
10433;DHT22;5263;48.680;9.004;2023-06-26T05:27:59;19.50;99.90
10433;DHT22;5263;48.680;9.004;2023-06-26T05:30:26;19.60;99.90
10433;DHT22;5263;48.680;9.004;2023-06-26T05:32:55;19.70;99.90
10433;DHT22;5263;48.680;9.004;2023-06-26T05:35:22;19.90;99.90
10433;DHT22;5263;48.680;9.004;2023-06-26T05:37:50;20.10;99.90
10433;DHT22;5263;48.680;9.004;2023-06-26T05:40:17;20.30;99.90
10433;DHT22;5263;48.680;9.004;2023-06-26T05:42:43;20.30;99.90
10433;DHT22;5263;48.680;9.004;2023-06-26T05:45:10;20.50;99.90
10433;DHT22;5263;48.680;9.004;2023-06-26T05:47:36;20.60;99.90
10433;DHT22;5263;48.680;9.004;2023-06-26T05:50:02;20.80;99.90
10433;DHT22;5263;48.680;9.004;2023-06-26T05:52:29;21.00;99.90
10433;DHT22;5263;48.680;9.004;2023-06-26T05:54:55;21.10;99.90
10433;DHT22;5263;48.680;9.004;2023-06-26T05:57:24;21.30;99.90
10433;DHT22;5263;48.680;9.004;2023-06-26T05:59:51;21.40;99.90
10433;DHT22;5263;48.680;9.004;2023-06-26T06:02:17;21.60;99.90
10433;DHT22;5263;48.680;9.004;2023-06-26T06:04:42;21.70;99.90
10433;DHT22;5263;48.680;9.004;2023-06-26T06:07:08;21.90;99.90
10433;DHT22;5263;48.680;9.004;2023-06-26T06:09:33;22.00;99.90
10433;DHT22;5263;48.680;9.004;2023-06-26T06:11:59;22.10;99.90
10433;DHT22;5263;48.680;9.004;2023-06-26T06:14:27;22.30;99.90
10433;DHT22;5263;48.680;9.004;2023-06-26T06:16:52;22.40;99.90
10433;DHT22;5263;48.680;9.004;2023-06-26T06:19:18;22.60;99.90
10433;DHT22;5263;48.680;9.004;2023-06-26T06:21:43;22.80;99.90
10433;DHT22;5263;48.680;9.004;2023-06-26T06:24:09;23.00;99.90
10433;DHT22;5263;48.680;9.004;2023-06-26T06:26:35;23.00;99.90
10433;DHT22;5263;48.680;9.004;2023-06-26T06:29:01;23.00;99.90
10433;DHT22;5263;48.680;9.004;2023-06-26T06:31:26;23.10;99.90
10433;DHT22;5263;48.680;9.004;2023-06-26T06:33:54;23.20;99.90
10433;DHT22;5263;48.680;9.004;2023-06-26T06:36:20;23.30;99.90
10433;DHT22;5263;48.680;9.004;2023-06-26T06:38:45;23.40;99.90
10433;DHT22;5263;48.680;9.004;2023-06-26T06:41:11;23.40;99.90
10433;DHT22;5263;48.680;9.004;2023-06-26T06:43:38;23.50;99.90
10433;DHT22;5263;48.680;9.004;2023-06-26T06:46:04;23.60;99.90
10433;DHT22;5263;48.680;9.004;2023-06-26T06:48:31;23.70;99.90
10433;DHT22;5263;48.680;9.004;2023-06-26T06:50:57;23.90;99.90
10433;DHT22;5263;48.680;9.004;2023-06-26T06:53:23;24.00;99.90
10433;DHT22;5263;48.680;9.004;2023-06-26T06:55:51;24.00;99.90
10433;DHT22;5263;48.680;9.004;2023-06-26T06:58:17;24.20;99.90
10433;DHT22;5263;48.680;9.004;2023-06-26T07:00:45;24.30;99.90
10433;DHT22;5263;48.680;9.004;2023-06-26T07:03:11;24.40;99.90
10433;DHT22;5263;48.680;9.004;2023-06-26T07:05:37;24.50;99.90
10433;DHT22;5263;48.680;9.004;2023-06-26T07:08:03;24.80;99.90
10433;DHT22;5263;48.680;9.004;2023-06-26T07:10:29;24.80;99.90
10433;DHT22;5263;48.680;9.004;2023-06-26T07:12:55;25.00;99.90
10433;DHT22;5263;48.680;9.004;2023-06-26T07:15:20;25.20;99.90
10433;DHT22;5263;48.680;9.004;2023-06-26T07:17:46;25.40;99.10
10433;DHT22;5263;48.680;9.004;2023-06-26T07:20:12;25.50;99.50
10433;DHT22;5263;48.680;9.004;2023-06-26T07:22:41;25.60;98.40
10433;DHT22;5263;48.680;9.004;2023-06-26T07:25:07;25.70;97.90
10433;DHT22;5263;48.680;9.004;2023-06-26T07:27:37;25.80;97.70
10433;DHT22;5263;48.680;9.004;2023-06-26T07:30:03;25.80;97.80
10433;DHT22;5263;48.680;9.004;2023-06-26T07:32:29;25.90;97.60
10433;DHT22;5263;48.680;9.004;2023-06-26T07:34:55;26.00;97.70
10433;DHT22;5263;48.680;9.004;2023-06-26T07:37:21;26.10;97.30
10433;DHT22;5263;48.680;9.004;2023-06-26T07:39:47;26.30;96.80
10433;DHT22;5263;48.680;9.004;2023-06-26T07:42:13;26.30;96.90
10433;DHT22;5263;48.680;9.004;2023-06-26T07:44:39;26.50;96.70
10433;DHT22;5263;48.680;9.004;2023-06-26T07:47:04;26.70;95.60
10433;DHT22;5263;48.680;9.004;2023-06-26T07:49:30;26.80;94.10
10433;DHT22;5263;48.680;9.004;2023-06-26T07:51:56;26.90;95.50
10433;DHT22;5263;48.680;9.004;2023-06-26T07:54:21;26.90;94.40
10433;DHT22;5263;48.680;9.004;2023-06-26T07:56:53;26.90;93.80
10433;DHT22;5263;48.680;9.004;2023-06-26T07:59:22;27.00;93.90
10433;DHT22;5263;48.680;9.004;2023-06-26T08:01:50;27.20;94.30
10433;DHT22;5263;48.680;9.004;2023-06-26T08:04:21;27.10;92.50
10433;DHT22;5263;48.680;9.004;2023-06-26T08:06:52;27.30;93.50
10433;DHT22;5263;48.680;9.004;2023-06-26T08:09:19;27.40;93.10
10433;DHT22;5263;48.680;9.004;2023-06-26T08:11:46;27.60;92.50
10433;DHT22;5263;48.680;9.004;2023-06-26T08:14:11;27.70;92.90
10433;DHT22;5263;48.680;9.004;2023-06-26T08:16:38;27.80;91.90
10433;DHT22;5263;48.680;9.004;2023-06-26T08:19:04;27.80;91.00
10433;DHT22;5263;48.680;9.004;2023-06-26T08:21:30;27.90;89.50
10433;DHT22;5263;48.680;9.004;2023-06-26T08:23:55;27.90;87.40
10433;DHT22;5263;48.680;9.004;2023-06-26T08:26:21;27.90;88.00
10433;DHT22;5263;48.680;9.004;2023-06-26T08:28:47;28.00;88.80
10433;DHT22;5263;48.680;9.004;2023-06-26T08:31:12;28.10;84.90
10433;DHT22;5263;48.680;9.004;2023-06-26T08:33:38;28.00;85.00
10433;DHT22;5263;48.680;9.004;2023-06-26T08:36:03;28.10;83.70
10433;DHT22;5263;48.680;9.004;2023-06-26T08:38:29;28.10;82.30
10433;DHT22;5263;48.680;9.004;2023-06-26T08:40:54;28.30;83.30
10433;DHT22;5263;48.680;9.004;2023-06-26T08:43:20;28.40;81.50
10433;DHT22;5263;48.680;9.004;2023-06-26T08:45:47;28.40;80.90
10433;DHT22;5263;48.680;9.004;2023-06-26T08:48:17;28.50;79.30
10433;DHT22;5263;48.680;9.004;2023-06-26T08:50:43;28.60;79.00
10433;DHT22;5263;48.680;9.004;2023-06-26T08:55:49;28.50;76.00
10433;DHT22;5263;48.680;9.004;2023-06-26T08:58:17;28.50;77.50
10433;DHT22;5263;48.680;9.004;2023-06-26T09:00:43;28.60;74.90
10433;DHT22;5263;48.680;9.004;2023-06-26T09:03:09;28.70;75.10
10433;DHT22;5263;48.680;9.004;2023-06-26T09:05:35;28.80;75.10
10433;DHT22;5263;48.680;9.004;2023-06-26T09:08:02;28.60;73.10
10433;DHT22;5263;48.680;9.004;2023-06-26T09:10:28;28.90;73.60
10433;DHT22;5263;48.680;9.004;2023-06-26T09:12:56;29.10;72.20
10433;DHT22;5263;48.680;9.004;2023-06-26T09:15:23;29.40;72.40
10433;DHT22;5263;48.680;9.004;2023-06-26T09:17:49;29.90;73.70
10433;DHT22;5263;48.680;9.004;2023-06-26T09:20:15;30.20;69.30
10433;DHT22;5263;48.680;9.004;2023-06-26T09:22:42;30.20;68.00
10433;DHT22;5263;48.680;9.004;2023-06-26T09:25:09;30.50;68.30
10433;DHT22;5263;48.680;9.004;2023-06-26T09:27:35;30.40;70.00
10433;DHT22;5263;48.680;9.004;2023-06-26T09:30:05;30.20;66.90
10433;DHT22;5263;48.680;9.004;2023-06-26T09:32:37;30.00;67.50
10433;DHT22;5263;48.680;9.004;2023-06-26T09:35:03;29.90;68.20
10433;DHT22;5263;48.680;9.004;2023-06-26T09:37:29;30.60;67.10
10433;DHT22;5263;48.680;9.004;2023-06-26T09:39:55;30.40;67.40
10433;DHT22;5263;48.680;9.004;2023-06-26T09:42:21;30.20;66.50
10433;DHT22;5263;48.680;9.004;2023-06-26T09:44:49;29.90;67.00
10433;DHT22;5263;48.680;9.004;2023-06-26T09:47:18;30.10;67.30
10433;DHT22;5263;48.680;9.004;2023-06-26T09:49:44;30.30;66.80
10433;DHT22;5263;48.680;9.004;2023-06-26T09:52:11;30.30;68.30
10433;DHT22;5263;48.680;9.004;2023-06-26T09:54:38;30.20;68.50
10433;DHT22;5263;48.680;9.004;2023-06-26T09:57:11;29.70;70.60
10433;DHT22;5263;48.680;9.004;2023-06-26T09:59:37;29.40;69.20
10433;DHT22;5263;48.680;9.004;2023-06-26T10:02:03;29.20;70.00
10433;DHT22;5263;48.680;9.004;2023-06-26T10:04:29;29.10;67.80
10433;DHT22;5263;48.680;9.004;2023-06-26T10:06:56;29.10;71.20
10433;DHT22;5263;48.680;9.004;2023-06-26T10:09:24;29.00;71.50
10433;DHT22;5263;48.680;9.004;2023-06-26T10:12:05;29.30;78.00
10433;DHT22;5263;48.680;9.004;2023-06-26T10:14:34;29.30;70.70
10433;DHT22;5263;48.680;9.004;2023-06-26T10:17:03;29.40;72.00
10433;DHT22;5263;48.680;9.004;2023-06-26T10:19:30;29.60;73.10
10433;DHT22;5263;48.680;9.004;2023-06-26T10:21:58;29.80;69.40
10433;DHT22;5263;48.680;9.004;2023-06-26T10:24:26;29.90;68.70
10433;DHT22;5263;48.680;9.004;2023-06-26T10:26:59;29.80;69.60
10433;DHT22;5263;48.680;9.004;2023-06-26T10:29:28;30.40;70.00
10433;DHT22;5263;48.680;9.004;2023-06-26T10:31:57;30.50;71.90
10433;DHT22;5263;48.680;9.004;2023-06-26T10:34:24;30.00;73.60
10433;DHT22;5263;48.680;9.004;2023-06-26T10:36:59;29.70;74.90
10433;DHT22;5263;48.680;9.004;2023-06-26T10:39:26;29.70;75.90
10433;DHT22;5263;48.680;9.004;2023-06-26T10:41:54;30.70;74.10
10433;DHT22;5263;48.680;9.004;2023-06-26T10:44:20;31.20;72.40
10433;DHT22;5263;48.680;9.004;2023-06-26T10:46:53;32.10;71.40
10433;DHT22;5263;48.680;9.004;2023-06-26T10:49:29;32.60;69.90
10433;DHT22;5263;48.680;9.004;2023-06-26T10:52:01;33.00;70.10
10433;DHT22;5263;48.680;9.004;2023-06-26T10:54:31;33.50;66.20
10433;DHT22;5263;48.680;9.004;2023-06-26T10:56:57;34.40;64.40
10433;DHT22;5263;48.680;9.004;2023-06-26T10:59:25;35.20;62.70
10433;DHT22;5263;48.680;9.004;2023-06-26T11:02:05;35.20;59.90
10433;DHT22;5263;48.680;9.004;2023-06-26T11:10:07;34.20;59.70
10433;DHT22;5263;48.680;9.004;2023-06-26T11:12:40;33.60;61.60
10433;DHT22;5263;48.680;9.004;2023-06-26T11:15:12;34.80;59.00
10433;DHT22;5263;48.680;9.004;2023-06-26T11:17:39;34.50;59.40
10433;DHT22;5263;48.680;9.004;2023-06-26T11:20:06;34.70;58.60
10433;DHT22;5263;48.680;9.004;2023-06-26T11:22:35;34.50;57.20
10433;DHT22;5263;48.680;9.004;2023-06-26T11:25:01;35.20;56.40
10433;DHT22;5263;48.680;9.004;2023-06-26T11:27:41;36.60;54.90
10433;DHT22;5263;48.680;9.004;2023-06-26T11:30:08;37.30;54.10
10433;DHT22;5263;48.680;9.004;2023-06-26T11:32:35;37.40;53.20
10433;DHT22;5263;48.680;9.004;2023-06-26T11:35:01;36.20;54.20
10433;DHT22;5263;48.680;9.004;2023-06-26T11:37:27;35.50;54.20
10433;DHT22;5263;48.680;9.004;2023-06-26T11:39:52;35.70;54.70
10433;DHT22;5263;48.680;9.004;2023-06-26T11:42:19;35.10;55.40
10433;DHT22;5263;48.680;9.004;2023-06-26T11:44:46;35.40;56.20
10433;DHT22;5263;48.680;9.004;2023-06-26T11:47:16;34.90;57.10
10433;DHT22;5263;48.680;9.004;2023-06-26T11:49:47;36.30;56.20
10433;DHT22;5263;48.680;9.004;2023-06-26T11:52:13;35.60;56.30
10433;DHT22;5263;48.680;9.004;2023-06-26T11:54:39;36.20;56.40
10433;DHT22;5263;48.680;9.004;2023-06-26T11:57:05;36.90;54.00
10433;DHT22;5263;48.680;9.004;2023-06-26T11:59:36;37.50;53.00
10433;DHT22;5263;48.680;9.004;2023-06-26T12:02:08;36.80;52.90
10433;DHT22;5263;48.680;9.004;2023-06-26T12:04:41;35.20;54.60
10433;DHT22;5263;48.680;9.004;2023-06-26T12:07:08;33.90;56.60
10433;DHT22;5263;48.680;9.004;2023-06-26T12:09:43;34.60;57.60
10433;DHT22;5263;48.680;9.004;2023-06-26T12:12:14;34.80;57.80
10433;DHT22;5263;48.680;9.004;2023-06-26T12:14:40;36.70;55.30
10433;DHT22;5263;48.680;9.004;2023-06-26T12:17:12;36.70;54.70
10433;DHT22;5263;48.680;9.004;2023-06-26T12:19:42;36.80;54.20
10433;DHT22;5263;48.680;9.004;2023-06-26T12:22:08;35.20;57.20
10433;DHT22;5263;48.680;9.004;2023-06-26T12:24:38;35.20;56.50
10433;DHT22;5263;48.680;9.004;2023-06-26T12:27:08;36.70;55.10
10433;DHT22;5263;48.680;9.004;2023-06-26T12:29:35;35.20;56.20
10433;DHT22;5263;48.680;9.004;2023-06-26T12:32:01;35.30;57.10
10433;DHT22;5263;48.680;9.004;2023-06-26T12:34:38;36.80;56.10
10433;DHT22;5263;48.680;9.004;2023-06-26T12:37:11;38.20;53.90
10433;DHT22;5263;48.680;9.004;2023-06-26T12:39:54;37.80;52.30
10433;DHT22;5263;48.680;9.004;2023-06-26T12:42:24;37.50;53.50
10433;DHT22;5263;48.680;9.004;2023-06-26T12:44:50;37.50;53.00
10433;DHT22;5263;48.680;9.004;2023-06-26T12:47:17;38.20;52.80
10433;DHT22;5263;48.680;9.004;2023-06-26T12:49:45;37.70;53.00
10433;DHT22;5263;48.680;9.004;2023-06-26T12:52:13;37.90;53.50
10433;DHT22;5263;48.680;9.004;2023-06-26T12:54:40;38.40;52.50
10433;DHT22;5263;48.680;9.004;2023-06-26T12:57:07;37.80;52.70
10433;DHT22;5263;48.680;9.004;2023-06-26T12:59:36;36.10;54.50
10433;DHT22;5263;48.680;9.004;2023-06-26T13:02:02;36.50;56.80
10433;DHT22;5263;48.680;9.004;2023-06-26T13:04:28;35.50;56.60
10433;DHT22;5263;48.680;9.004;2023-06-26T13:06:54;36.80;55.10
10433;DHT22;5263;48.680;9.004;2023-06-26T13:09:20;36.40;54.30
10433;DHT22;5263;48.680;9.004;2023-06-26T13:11:46;36.50;54.30
10433;DHT22;5263;48.680;9.004;2023-06-26T13:14:11;36.10;54.30
10433;DHT22;5263;48.680;9.004;2023-06-26T13:16:37;36.30;54.80
10433;DHT22;5263;48.680;9.004;2023-06-26T13:19:03;35.10;55.40
10433;DHT22;5263;48.680;9.004;2023-06-26T13:21:29;34.20;56.60
10433;DHT22;5263;48.680;9.004;2023-06-26T13:23:55;34.50;57.30
10433;DHT22;5263;48.680;9.004;2023-06-26T13:26:22;35.10;56.10
10433;DHT22;5263;48.680;9.004;2023-06-26T13:28:48;36.30;55.00
10433;DHT22;5263;48.680;9.004;2023-06-26T13:31:14;36.00;55.40
10433;DHT22;5263;48.680;9.004;2023-06-26T13:33:40;35.40;54.30
10433;DHT22;5263;48.680;9.004;2023-06-26T13:36:06;35.00;54.10
10433;DHT22;5263;48.680;9.004;2023-06-26T13:38:35;34.80;55.20
10433;DHT22;5263;48.680;9.004;2023-06-26T13:41:00;34.70;55.60
10433;DHT22;5263;48.680;9.004;2023-06-26T13:43:27;34.80;55.50
10433;DHT22;5263;48.680;9.004;2023-06-26T13:45:53;34.30;54.90
10433;DHT22;5263;48.680;9.004;2023-06-26T13:48:19;34.90;55.30
10433;DHT22;5263;48.680;9.004;2023-06-26T13:50:45;34.00;55.40
10433;DHT22;5263;48.680;9.004;2023-06-26T13:53:11;33.50;55.30
10433;DHT22;5263;48.680;9.004;2023-06-26T13:55:36;33.60;56.40
10433;DHT22;5263;48.680;9.004;2023-06-26T13:58:04;33.50;55.60
10433;DHT22;5263;48.680;9.004;2023-06-26T14:00:31;33.80;55.30
10433;DHT22;5263;48.680;9.004;2023-06-26T14:03:02;33.70;54.10
10433;DHT22;5263;48.680;9.004;2023-06-26T14:05:31;33.90;54.00
10433;DHT22;5263;48.680;9.004;2023-06-26T14:07:57;35.20;53.80
10433;DHT22;5263;48.680;9.004;2023-06-26T14:10:23;34.20;52.70
10433;DHT22;5263;48.680;9.004;2023-06-26T14:12:49;33.30;53.60
10433;DHT22;5263;48.680;9.004;2023-06-26T14:15:15;33.40;54.30
10433;DHT22;5263;48.680;9.004;2023-06-26T14:17:40;33.10;54.00
10433;DHT22;5263;48.680;9.004;2023-06-26T14:20:07;33.20;54.10
10433;DHT22;5263;48.680;9.004;2023-06-26T14:22:38;33.30;53.40
10433;DHT22;5263;48.680;9.004;2023-06-26T14:25:05;33.30;54.50
10433;DHT22;5263;48.680;9.004;2023-06-26T14:27:31;32.80;54.00
10433;DHT22;5263;48.680;9.004;2023-06-26T14:29:56;32.10;55.40
10433;DHT22;5263;48.680;9.004;2023-06-26T14:32:23;31.90;56.00
10433;DHT22;5263;48.680;9.004;2023-06-26T14:34:49;31.70;56.00
10433;DHT22;5263;48.680;9.004;2023-06-26T14:37:14;30.80;57.10
10433;DHT22;5263;48.680;9.004;2023-06-26T14:39:40;30.70;58.00
10433;DHT22;5263;48.680;9.004;2023-06-26T14:42:06;30.60;58.60
10433;DHT22;5263;48.680;9.004;2023-06-26T14:44:31;30.60;58.50
10433;DHT22;5263;48.680;9.004;2023-06-26T14:46:57;30.50;58.40
10433;DHT22;5263;48.680;9.004;2023-06-26T14:49:22;30.20;59.00
10433;DHT22;5263;48.680;9.004;2023-06-26T14:51:48;30.20;59.10
10433;DHT22;5263;48.680;9.004;2023-06-26T14:54:14;30.50;59.20
10433;DHT22;5263;48.680;9.004;2023-06-26T14:56:39;30.30;60.10
10433;DHT22;5263;48.680;9.004;2023-06-26T14:59:05;29.90;59.80
10433;DHT22;5263;48.680;9.004;2023-06-26T15:01:33;29.70;60.50
10433;DHT22;5263;48.680;9.004;2023-06-26T15:03:59;29.30;61.90
10433;DHT22;5263;48.680;9.004;2023-06-26T15:06:24;29.20;62.80
10433;DHT22;5263;48.680;9.004;2023-06-26T15:08:50;29.10;62.40
10433;DHT22;5263;48.680;9.004;2023-06-26T15:11:16;29.00;62.60
10433;DHT22;5263;48.680;9.004;2023-06-26T15:13:41;28.80;63.40
10433;DHT22;5263;48.680;9.004;2023-06-26T15:16:07;28.80;63.70
10433;DHT22;5263;48.680;9.004;2023-06-26T15:18:32;28.60;63.50
10433;DHT22;5263;48.680;9.004;2023-06-26T15:20:58;28.40;64.50
10433;DHT22;5263;48.680;9.004;2023-06-26T15:23:24;28.40;64.40
10433;DHT22;5263;48.680;9.004;2023-06-26T15:25:49;28.50;65.10
10433;DHT22;5263;48.680;9.004;2023-06-26T15:28:15;28.60;64.70
10433;DHT22;5263;48.680;9.004;2023-06-26T15:30:41;28.50;65.00
10433;DHT22;5263;48.680;9.004;2023-06-26T15:33:06;28.60;65.10
10433;DHT22;5263;48.680;9.004;2023-06-26T15:35:32;28.60;65.50
10433;DHT22;5263;48.680;9.004;2023-06-26T15:37:58;28.70;64.50
10433;DHT22;5263;48.680;9.004;2023-06-26T15:40:23;28.50;65.00
10433;DHT22;5263;48.680;9.004;2023-06-26T15:42:51;28.20;64.70
10433;DHT22;5263;48.680;9.004;2023-06-26T15:45:18;27.90;65.20
10433;DHT22;5263;48.680;9.004;2023-06-26T15:47:44;27.50;65.40
10433;DHT22;5263;48.680;9.004;2023-06-26T15:50:10;27.20;66.80
10433;DHT22;5263;48.680;9.004;2023-06-26T15:52:37;27.10;67.00
10433;DHT22;5263;48.680;9.004;2023-06-26T15:55:03;26.90;67.90
10433;DHT22;5263;48.680;9.004;2023-06-26T15:57:30;26.90;68.50
10433;DHT22;5263;48.680;9.004;2023-06-26T15:59:56;26.70;68.90